Time;durP1;ratioP1;P1;durP2;ratioP2;P2;SDS_P1;SDS_P2;PMS_P1;PMS_P2;Temp;Humidity;BMP_temperature;BMP_pressure;BME280_temperature;BME280_humidity;BME280_pressure;Samples;Min_cycle;Max_cycle;Signal;HPM_P1;HPM_P2
2020/12/06 00:00:54;;;;;;;24.97;18.57;;;;;;;;;;5097786;28;20263;-82
2020/12/06 00:03:20;;;;;;;22.07;17.17;;;;;;;;;;5097330;28;20599;-83
2020/12/06 00:05:46;;;;;;;24.73;17.80;;;;;;;;;;5097764;28;20210;-84
2020/12/06 00:08:13;;;;;;;24.03;17.00;;;;;;;;;;5097592;28;20210;-83
2020/12/06 00:10:39;;;;;;;24.40;17.87;;;;;;;;;;5097639;28;20233;-83
2020/12/06 00:13:06;;;;;;;23.10;17.67;;;;;;;;;;5097471;28;20483;-82
2020/12/06 00:15:32;;;;;;;24.47;17.30;;;;;;;;;;5097579;28;20233;-83
2020/12/06 00:17:58;;;;;;;24.30;17.80;;;;;;;;;;5097170;28;20229;-82
2020/12/06 00:20:24;;;;;;;26.23;18.30;;;;;;;;;;5097179;28;20237;-82
2020/12/06 00:22:50;;;;;;;29.13;19.60;;;;;;;;;;5096975;28;20561;-83
2020/12/06 00:25:16;;;;;;;23.87;17.33;;;;;;;;;;5097546;28;20737;-81
2020/12/06 00:27:43;;;;;;;27.40;18.77;;;;;;;;;;5095872;28;20229;-82
2020/12/06 00:30:10;;;;;;;27.37;17.90;;;;;;;;;;5096818;28;20241;-82
2020/12/06 00:32:36;;;;;;;27.87;18.97;;;;;;;;;;5096815;28;20633;-82
2020/12/06 00:35:02;;;;;;;25.43;18.63;;;;;;;;;;5096011;28;20198;-82
2020/12/06 00:37:29;;;;;;;26.43;18.77;;;;;;;;;;5096048;28;20237;-82
2020/12/06 00:39:55;;;;;;;27.90;19.63;;;;;;;;;;5097106;28;20244;-82
2020/12/06 00:42:21;;;;;;;31.23;19.67;;;;;;;;;;5096797;28;20237;-83
2020/12/06 00:44:48;;;;;;;26.30;18.53;;;;;;;;;;5097024;28;20505;-83
2020/12/06 00:47:14;;;;;;;28.67;19.33;;;;;;;;;;5096398;28;20221;-83
2020/12/06 00:49:40;;;;;;;28.73;19.77;;;;;;;;;;5096972;28;20539;-83
2020/12/06 00:52:06;;;;;;;29.20;19.17;;;;;;;;;;5096812;28;20233;-82
2020/12/06 00:54:32;;;;;;;25.47;19.17;;;;;;;;;;5096876;28;20216;-83
2020/12/06 00:56:58;;;;;;;25.03;17.67;;;;;;;;;;5096689;28;20533;-82
2020/12/06 00:59:24;;;;;;;33.53;21.57;;;;;;;;;;5096740;28;20229;-82
2020/12/06 01:01:51;;;;;;;31.07;20.67;;;;;;;;;;5095137;28;20225;-82
2020/12/06 01:04:17;;;;;;;29.57;19.67;;;;;;;;;;5096244;28;20245;-83
2020/12/06 01:06:44;;;;;;;30.33;20.87;;;;;;;;;;5096079;28;20236;-82
2020/12/06 01:09:10;;;;;;;30.77;19.37;;;;;;;;;;5096306;28;20640;-81
2020/12/06 01:11:36;;;;;;;29.97;19.27;;;;;;;;;;5096356;28;20222;-84
2020/12/06 01:14:02;;;;;;;27.17;18.80;;;;;;;;;;5095980;28;20232;-83
2020/12/06 01:16:28;;;;;;;26.80;19.73;;;;;;;;;;5096423;28;20230;-82
2020/12/06 01:18:55;;;;;;;25.40;17.97;;;;;;;;;;5096245;28;20229;-83
2020/12/06 01:21:21;;;;;;;25.53;18.47;;;;;;;;;;5096335;28;20233;-83
2020/12/06 01:23:47;;;;;;;28.73;20.07;;;;;;;;;;5096244;28;20256;-82
2020/12/06 01:26:13;;;;;;;28.03;19.00;;;;;;;;;;5096256;28;20229;-82
2020/12/06 01:28:40;;;;;;;27.37;18.53;;;;;;;;;;5094788;28;20232;-83
2020/12/06 01:31:06;;;;;;;25.77;18.03;;;;;;;;;;5095773;28;20256;-82
2020/12/06 01:33:32;;;;;;;24.57;17.80;;;;;;;;;;5095528;28;20225;-81
2020/12/06 01:35:59;;;;;;;26.93;18.47;;;;;;;;;;5095986;28;20251;-83
2020/12/06 01:38:25;;;;;;;29.20;19.03;;;;;;;;;;5094732;28;20232;-83
2020/12/06 01:40:51;;;;;;;29.43;19.30;;;;;;;;;;5095946;28;20300;-82
2020/12/06 01:43:17;;;;;;;30.57;19.07;;;;;;;;;;5095474;28;20567;-83
2020/12/06 01:45:43;;;;;;;27.10;19.03;;;;;;;;;;5095180;28;20637;-83
2020/12/06 01:48:10;;;;;;;26.23;18.47;;;;;;;;;;5095512;28;20237;-82
2020/12/06 01:50:36;;;;;;;25.67;17.97;;;;;;;;;;5095809;28;20229;-82
2020/12/06 01:53:03;;;;;;;28.13;18.87;;;;;;;;;;5095768;28;20648;-83
2020/12/06 01:55:30;;;;;;;27.53;18.43;;;;;;;;;;5095252;28;20257;-82
2020/12/06 01:58:00;;;;;;;26.57;17.87;;;;;;;;;;5095368;28;20624;-82
2020/12/06 02:00:26;;;;;;;26.27;18.53;;;;;;;;;;5095763;28;20241;-82
2020/12/06 02:02:52;;;;;;;28.97;18.27;;;;;;;;;;5095353;28;20202;-82
2020/12/06 02:05:19;;;;;;;27.73;17.97;;;;;;;;;;5095624;28;20479;-83
2020/12/06 02:07:46;;;;;;;25.87;17.70;;;;;;;;;;5095448;28;20233;-82
2020/12/06 02:10:13;;;;;;;25.93;17.70;;;;;;;;;;5095169;28;20282;-83
2020/12/06 02:12:43;;;;;;;28.03;18.27;;;;;;;;;;5095424;28;20197;-83
2020/12/06 02:15:09;;;;;;;28.93;17.83;;;;;;;;;;5095477;28;20253;-82
2020/12/06 02:17:35;;;;;;;26.33;17.33;;;;;;;;;;5095339;28;20507;-82
2020/12/06 02:20:02;;;;;;;25.63;17.87;;;;;;;;;;5095298;28;20237;-83
2020/12/06 02:22:29;;;;;;;25.33;16.80;;;;;;;;;;5094662;28;20206;-83
2020/12/06 02:24:55;;;;;;;24.97;18.23;;;;;;;;;;5095033;28;20260;-83
2020/12/06 02:27:21;;;;;;;24.40;16.77;;;;;;;;;;5095407;28;20236;-82
2020/12/06 02:29:47;;;;;;;30.77;19.00;;;;;;;;;;5095429;28;20226;-83
2020/12/06 02:32:13;;;;;;;30.20;18.00;;;;;;;;;;5094540;28;20661;-82
2020/12/06 02:34:39;;;;;;;24.60;17.37;;;;;;;;;;5095411;28;20225;-83
2020/12/06 02:37:06;;;;;;;26.83;17.93;;;;;;;;;;5094663;28;20229;-82
2020/12/06 02:39:32;;;;;;;24.87;17.57;;;;;;;;;;5095377;28;20284;-83
2020/12/06 02:41:58;;;;;;;24.60;17.97;;;;;;;;;;5095151;28;20225;-82
2020/12/06 02:44:25;;;;;;;27.40;18.80;;;;;;;;;;5095288;28;20241;-82
2020/12/06 02:46:51;;;;;;;25.73;17.83;;;;;;;;;;5094647;28;20225;-82
2020/12/06 02:49:17;;;;;;;25.67;17.87;;;;;;;;;;5095174;28;20237;-81
2020/12/06 02:51:43;;;;;;;24.73;17.43;;;;;;;;;;5094661;28;20232;-81
2020/12/06 02:54:10;;;;;;;26.47;18.43;;;;;;;;;;5095209;28;20244;-82
2020/12/06 02:56:36;;;;;;;24.60;17.73;;;;;;;;;;5094866;28;20505;-83
2020/12/06 02:59:02;;;;;;;24.40;17.50;;;;;;;;;;5095162;28;20241;-82
2020/12/06 03:01:28;;;;;;;24.10;17.33;;;;;;;;;;5094529;28;20233;-82
2020/12/06 03:03:54;;;;;;;25.33;17.23;;;;;;;;;;5095091;28;20252;-82
2020/12/06 03:06:20;;;;;;;27.77;18.07;;;;;;;;;;5094838;28;20660;-82
2020/12/06 03:08:46;;;;;;;25.03;17.43;;;;;;;;;;5098580;28;20230;-82
2020/12/06 03:11:13;;;;;;;26.27;17.93;;;;;;;;;;5098701;28;20232;-83
2020/12/06 03:13:39;;;;;;;25.30;17.00;;;;;;;;;;5098856;28;20221;-82
2020/12/06 03:16:06;;;;;;;25.87;17.77;;;;;;;;;;5098444;28;20240;-82
2020/12/06 03:18:32;;;;;;;23.30;16.97;;;;;;;;;;5098621;28;20538;-82
2020/12/06 03:20:58;;;;;;;23.17;17.00;;;;;;;;;;5098809;28;20229;-82
2020/12/06 03:23:24;;;;;;;22.03;16.87;;;;;;;;;;5098278;28;20249;-82
2020/12/06 03:25:50;;;;;;;26.57;17.03;;;;;;;;;;5097017;28;20244;-81
2020/12/06 03:28:17;;;;;;;29.33;18.53;;;;;;;;;;5098370;28;20531;-82
2020/12/06 03:30:43;;;;;;;25.97;17.33;;;;;;;;;;5098084;28;20249;-82
2020/12/06 03:33:10;;;;;;;24.73;17.07;;;;;;;;;;5098448;28;20234;-82
2020/12/06 03:35:36;;;;;;;24.30;17.10;;;;;;;;;;5096876;28;20263;-82
2020/12/06 03:38:02;;;;;;;24.20;17.53;;;;;;;;;;5098408;28;20236;-82
2020/12/06 03:40:28;;;;;;;23.93;16.87;;;;;;;;;;5098126;28;20642;-80
2020/12/06 03:42:54;;;;;;;25.73;16.53;;;;;;;;;;5097777;28;20233;-82
2020/12/06 03:45:21;;;;;;;25.57;17.27;;;;;;;;;;5098066;28;20252;-81
2020/12/06 03:47:47;;;;;;;24.60;16.50;;;;;;;;;;5098139;28;20225;-81
2020/12/06 03:50:14;;;;;;;27.77;17.40;;;;;;;;;;5097996;28;20229;-81
2020/12/06 03:52:40;;;;;;;24.07;16.57;;;;;;;;;;5097828;28;20229;-81
2020/12/06 03:55:06;;;;;;;26.27;17.07;;;;;;;;;;5097723;28;20234;-82
2020/12/06 03:57:32;;;;;;;25.67;16.70;;;;;;;;;;5098096;28;20236;-82
2020/12/06 03:59:58;;;;;;;27.30;18.47;;;;;;;;;;5097984;28;20658;-81
2020/12/06 04:02:25;;;;;;;25.13;17.70;;;;;;;;;;5097974;28;20241;-81
2020/12/06 04:04:51;;;;;;;27.00;17.70;;;;;;;;;;5097838;28;20271;-83
2020/12/06 04:07:17;;;;;;;26.33;17.90;;;;;;;;;;5097833;28;20232;-82
2020/12/06 04:09:44;;;;;;;27.93;16.93;;;;;;;;;;5097847;28;20236;-82
2020/12/06 04:12:10;;;;;;;28.77;17.77;;;;;;;;;;5097290;28;20248;-80
2020/12/06 04:14:36;;;;;;;25.43;17.23;;;;;;;;;;5097844;28;20527;-80
2020/12/06 04:17:02;;;;;;;26.33;17.43;;;;;;;;;;5097701;28;20229;-80
2020/12/06 04:19:29;;;;;;;25.30;16.90;;;;;;;;;;5097447;28;20229;-82
2020/12/06 04:21:55;;;;;;;25.70;16.67;;;;;;;;;;5097165;28;20264;-82
2020/12/06 04:24:21;;;;;;;25.40;17.23;;;;;;;;;;5097025;28;20253;-81
2020/12/06 04:26:47;;;;;;;27.90;17.20;;;;;;;;;;5097443;28;20284;-81
2020/12/06 04:29:13;;;;;;;28.83;17.37;;;;;;;;;;5097203;28;20229;-80
2020/12/06 04:31:39;;;;;;;27.23;17.37;;;;;;;;;;5096567;28;20646;-82
2020/12/06 04:34:06;;;;;;;21.83;16.10;;;;;;;;;;5097473;28;20226;-81
2020/12/06 04:36:32;;;;;;;22.93;15.70;;;;;;;;;;5097349;28;20233;-81
2020/12/06 04:38:59;;;;;;;24.43;16.70;;;;;;;;;;5096966;28;20229;-82
2020/12/06 04:41:25;;;;;;;26.20;17.33;;;;;;;;;;5097077;28;20543;-82
2020/12/06 04:43:52;;;;;;;25.43;16.77;;;;;;;;;;5097133;28;20297;-82
2020/12/06 04:46:19;;;;;;;24.23;16.27;;;;;;;;;;5096892;28;20236;-83
2020/12/06 04:48:51;;;;;;;23.37;16.60;;;;;;;;;;5097145;28;20233;-82
2020/12/06 04:51:20;;;;;;;23.20;15.87;;;;;;;;;;5096632;28;20237;-82
2020/12/06 04:53:52;;;;;;;23.67;15.60;;;;;;;;;;5096988;28;20512;-82
2020/12/06 04:56:21;;;;;;;25.50;16.90;;;;;;;;;;5096491;28;20236;-82
2020/12/06 04:58:48;;;;;;;26.93;17.40;;;;;;;;;;5096829;28;20230;-82
2020/12/06 05:01:16;;;;;;;25.70;16.33;;;;;;;;;;5096115;28;20236;-83
2020/12/06 05:03:44;;;;;;;22.87;16.13;;;;;;;;;;5096431;28;20513;-83
2020/12/06 05:06:13;;;;;;;22.87;16.00;;;;;;;;;;5096437;28;20267;-82
2020/12/06 05:08:41;;;;;;;23.90;17.07;;;;;;;;;;5096745;28;20233;-82
2020/12/06 05:11:08;;;;;;;26.87;16.93;;;;;;;;;;5096074;28;20234;-82
2020/12/06 05:13:34;;;;;;;24.10;16.63;;;;;;;;;;5096556;28;20232;-79
2020/12/06 05:16:06;;;;;;;27.37;16.67;;;;;;;;;;5096062;28;20764;-80
2020/12/06 05:18:32;;;;;;;25.60;16.40;;;;;;;;;;5095269;28;20243;-81
2020/12/06 05:20:58;;;;;;;26.67;16.60;;;;;;;;;;5095581;28;20236;-81
2020/12/06 05:23:25;;;;;;;21.93;16.27;;;;;;;;;;5096343;28;20632;-81
2020/12/06 05:25:51;;;;;;;20.73;15.63;;;;;;;;;;5096157;28;20241;-81
2020/12/06 05:28:20;;;;;;;23.90;16.63;;;;;;;;;;5096404;28;20238;-81
2020/12/06 05:30:46;;;;;;;22.27;15.97;;;;;;;;;;5094502;28;20260;-82
2020/12/06 05:33:12;;;;;;;23.90;16.77;;;;;;;;;;5096567;28;20232;-82
2020/12/06 05:35:41;;;;;;;21.80;15.70;;;;;;;;;;5096104;28;20229;-80
2020/12/06 05:38:07;;;;;;;24.93;17.07;;;;;;;;;;5096180;28;20233;-82
2020/12/06 05:40:43;;;;;;;22.27;15.87;;;;;;;;;;5095996;28;20282;-81
2020/12/06 05:43:09;;;;;;;23.43;15.77;;;;;;;;;;5094581;28;20201;-81
2020/12/06 05:45:36;;;;;;;21.60;16.10;;;;;;;;;;5095245;28;20559;-83
2020/12/06 05:48:04;;;;;;;24.37;16.57;;;;;;;;;;5095676;28;20517;-83
2020/12/06 05:50:31;;;;;;;23.10;16.37;;;;;;;;;;5095435;28;20267;-83
2020/12/06 05:52:58;;;;;;;24.73;17.10;;;;;;;;;;5095910;28;20224;-82
2020/12/06 05:55:24;;;;;;;20.73;15.90;;;;;;;;;;5095022;28;20202;-82
2020/12/06 05:57:51;;;;;;;23.33;15.63;;;;;;;;;;5095841;28;20234;-82
2020/12/06 06:00:18;;;;;;;22.00;15.97;;;;;;;;;;5095758;28;20202;-81
2020/12/06 06:02:45;;;;;;;24.77;15.73;;;;;;;;;;5095857;28;20629;-83
2020/12/06 06:05:12;;;;;;;22.40;15.87;;;;;;;;;;5095394;28;20264;-81
2020/12/06 06:07:40;;;;;;;24.10;16.07;;;;;;;;;;5095616;28;20229;-81
2020/12/06 06:10:06;;;;;;;20.73;15.77;;;;;;;;;;5095694;28;20229;-83
2020/12/06 06:12:33;;;;;;;21.23;15.53;;;;;;;;;;5095538;28;20222;-82
2020/12/06 06:15:01;;;;;;;21.73;16.13;;;;;;;;;;5095434;28;20217;-82
2020/12/06 06:17:28;;;;;;;24.57;16.20;;;;;;;;;;5095469;28;20244;-83
2020/12/06 06:19:55;;;;;;;23.13;16.27;;;;;;;;;;5095561;28;20251;-82
2020/12/06 06:22:25;;;;;;;23.80;17.23;;;;;;;;;;5095293;28;20237;-81
2020/12/06 06:24:52;;;;;;;22.20;16.37;;;;;;;;;;5095164;28;20260;-82
2020/12/06 06:27:19;;;;;;;25.10;16.37;;;;;;;;;;5095043;28;20498;-82
2020/12/06 06:29:45;;;;;;;24.27;17.00;;;;;;;;;;5094858;28;20564;-83
2020/12/06 06:32:11;;;;;;;23.03;16.60;;;;;;;;;;5094794;28;20303;-81
2020/12/06 06:34:38;;;;;;;22.67;16.30;;;;;;;;;;5095439;28;20221;-82
2020/12/06 06:37:23;;;;;;;25.43;17.17;;;;;;;;;;5094999;28;20233;-81
2020/12/06 06:39:51;;;;;;;25.47;16.30;;;;;;;;;;5095194;28;20636;-82
2020/12/06 06:42:18;;;;;;;24.90;16.87;;;;;;;;;;5096977;28;20546;-82
2020/12/06 06:44:45;;;;;;;24.67;16.93;;;;;;;;;;5099223;28;20252;-82
2020/12/06 06:47:12;;;;;;;28.00;18.13;;;;;;;;;;5099552;28;20209;-82
2020/12/06 06:49:51;;;;;;;23.37;16.17;;;;;;;;;;5098798;28;20629;-84
2020/12/06 06:52:18;;;;;;;24.87;17.13;;;;;;;;;;5099405;28;20209;-84
2020/12/06 06:54:46;;;;;;;24.10;17.13;;;;;;;;;;5098741;28;20229;-84
2020/12/06 06:57:13;;;;;;;21.77;16.47;;;;;;;;;;5099271;28;20315;-83
2020/12/06 06:59:40;;;;;;;25.40;16.90;;;;;;;;;;5099171;28;20276;-84
2020/12/06 07:02:06;;;;;;;21.80;15.70;;;;;;;;;;5099248;28;20233;-82
2020/12/06 07:04:33;;;;;;;24.47;16.40;;;;;;;;;;5098664;28;20256;-84
2020/12/06 07:06:59;;;;;;;24.67;17.27;;;;;;;;;;5098845;28;20609;-82
2020/12/06 07:09:26;;;;;;;24.03;16.90;;;;;;;;;;5098369;28;20240;-82
2020/12/06 07:11:53;;;;;;;21.10;15.73;;;;;;;;;;5098768;28;20622;-80
2020/12/06 07:14:22;;;;;;;22.23;16.30;;;;;;;;;;5098790;28;20236;-83
2020/12/06 07:16:48;;;;;;;22.50;15.33;;;;;;;;;;5098906;28;20228;-82
2020/12/06 07:19:14;;;;;;;22.57;16.03;;;;;;;;;;5098767;28;20229;-81
2020/12/06 07:21:41;;;;;;;24.27;15.67;;;;;;;;;;5098405;28;20205;-83
2020/12/06 07:24:08;;;;;;;23.00;16.00;;;;;;;;;;5098546;28;20229;-80
2020/12/06 07:26:34;;;;;;;21.10;16.13;;;;;;;;;;5097371;28;20524;-83
2020/12/06 07:29:00;;;;;;;22.40;16.07;;;;;;;;;;5097156;28;20659;-82
2020/12/06 07:31:27;;;;;;;23.67;15.70;;;;;;;;;;5097855;28;20268;-83
2020/12/06 07:33:53;;;;;;;25.73;15.90;;;;;;;;;;5098612;28;20468;-82
2020/12/06 07:36:20;;;;;;;20.50;15.97;;;;;;;;;;5098441;28;20244;-83
2020/12/06 07:38:46;;;;;;;23.43;16.70;;;;;;;;;;5098466;28;20222;-82
2020/12/06 07:41:12;;;;;;;21.53;16.27;;;;;;;;;;5098059;28;20857;-83
2020/12/06 07:43:39;;;;;;;22.07;17.17;;;;;;;;;;5098194;28;20550;-82
2020/12/06 07:46:15;;;;;;;26.43;18.50;;;;;;;;;;5097433;28;20237;-82
2020/12/06 07:48:42;;;;;;;24.23;17.63;;;;;;;;;;5097451;28;20198;-81
2020/12/06 07:51:08;;;;;;;21.63;16.03;;;;;;;;;;5097453;28;20229;-82
2020/12/06 07:53:47;;;;;;;23.47;17.30;;;;;;;;;;5096669;28;20233;-82
2020/12/06 07:56:14;;;;;;;25.13;17.03;;;;;;;;;;5096977;28;20208;-82
2020/12/06 07:58:43;;;;;;;22.67;16.13;;;;;;;;;;5097151;28;20225;-82
2020/12/06 08:01:09;;;;;;;22.37;16.03;;;;;;;;;;5094317;28;20625;-82
2020/12/06 08:03:35;;;;;;;21.37;15.67;;;;;;;;;;5096818;28;20267;-82
2020/12/06 08:06:04;;;;;;;23.20;16.17;;;;;;;;;;5096596;28;20241;-81
2020/12/06 08:08:34;;;;;;;21.80;16.93;;;;;;;;;;5094493;28;20198;-82
2020/12/06 08:11:01;;;;;;;24.97;17.17;;;;;;;;;;5096642;28;20222;-82
2020/12/06 08:13:28;;;;;;;22.80;16.87;;;;;;;;;;5094012;28;20494;-82
2020/12/06 08:15:54;;;;;;;21.87;15.97;;;;;;;;;;5096825;28;20236;-80
2020/12/06 08:18:20;;;;;;;22.50;16.30;;;;;;;;;;5096738;28;20222;-79
2020/12/06 08:20:52;;;;;;;21.73;16.73;;;;;;;;;;5097170;28;20495;-81
2020/12/06 08:23:29;;;;;;;22.70;15.70;;;;;;;;;;5096798;28;20614;-81
2020/12/06 08:25:55;;;;;;;19.30;14.73;;;;;;;;;;5096672;28;20660;-80
2020/12/06 08:28:21;;;;;;;18.57;14.77;;;;;;;;;;5097088;28;20240;-83
2020/12/06 08:30:47;;;;;;;23.23;15.73;;;;;;;;;;5096329;28;20256;-81
2020/12/06 08:33:14;;;;;;;21.57;15.47;;;;;;;;;;5096738;28;20233;-82
2020/12/06 08:35:40;;;;;;;22.10;15.93;;;;;;;;;;5096671;28;20225;-82
2020/12/06 08:38:13;;;;;;;22.07;15.63;;;;;;;;;;5095854;28;20229;-82
2020/12/06 08:40:40;;;;;;;23.17;15.97;;;;;;;;;;5096315;28;20230;-82
2020/12/06 08:43:06;;;;;;;23.30;16.60;;;;;;;;;;5095667;28;20233;-81
2020/12/06 08:45:32;;;;;;;21.43;15.10;;;;;;;;;;5096232;28;20241;-81
2020/12/06 08:47:58;;;;;;;24.50;17.07;;;;;;;;;;5096030;28;20602;-80
2020/12/06 08:50:24;;;;;;;22.43;16.17;;;;;;;;;;5095810;28;20820;-80
2020/12/06 08:52:55;;;;;;;21.47;16.03;;;;;;;;;;5095591;28;20237;-80
2020/12/06 08:55:32;;;;;;;22.63;16.10;;;;;;;;;;5095534;28;20226;-82
2020/12/06 08:57:59;;;;;;;24.37;16.20;;;;;;;;;;5095401;28;20253;-81
2020/12/06 09:00:25;;;;;;;21.40;15.67;;;;;;;;;;5095662;28;20229;-80
2020/12/06 09:02:51;;;;;;;24.27;15.90;;;;;;;;;;5095835;28;20226;-81
2020/12/06 09:05:17;;;;;;;22.73;15.77;;;;;;;;;;5095584;28;20252;-80
2020/12/06 09:07:43;;;;;;;23.33;16.10;;;;;;;;;;5096659;28;20229;-84
2020/12/06 09:10:09;;;;;;;22.53;15.57;;;;;;;;;;5095091;28;20206;-83
2020/12/06 09:12:37;;;;;;;23.60;16.13;;;;;;;;;;5096483;28;20708;-85
2020/12/06 09:15:05;;;;;;;21.90;15.93;;;;;;;;;;5096323;28;20206;-82
2020/12/06 09:17:31;;;;;;;21.87;16.30;;;;;;;;;;5095899;28;20248;-82
2020/12/06 09:19:57;;;;;;;24.50;16.80;;;;;;;;;;5094842;28;20202;-84
2020/12/06 09:22:23;;;;;;;24.73;15.17;;;;;;;;;;5096145;28;20255;-81
2020/12/06 09:24:49;;;;;;;20.50;15.20;;;;;;;;;;5095496;28;20241;-83
2020/12/06 09:27:15;;;;;;;23.20;15.70;;;;;;;;;;5096310;28;20206;-83
2020/12/06 09:29:41;;;;;;;22.37;15.80;;;;;;;;;;5095632;28;20288;-83
2020/12/06 09:32:08;;;;;;;22.70;16.40;;;;;;;;;;5095639;28;20245;-82
2020/12/06 09:34:34;;;;;;;23.20;16.20;;;;;;;;;;5095799;28;20517;-82
2020/12/06 09:37:00;;;;;;;24.43;16.37;;;;;;;;;;5096065;28;20206;-82
2020/12/06 09:39:27;;;;;;;22.47;15.17;;;;;;;;;;5095297;28;20240;-82
2020/12/06 09:41:53;;;;;;;21.77;15.67;;;;;;;;;;5095893;28;20222;-82
2020/12/06 09:44:19;;;;;;;21.90;15.47;;;;;;;;;;5095233;28;20217;-82
2020/12/06 09:46:45;;;;;;;22.03;15.97;;;;;;;;;;5094815;28;20248;-82
2020/12/06 09:49:12;;;;;;;21.43;15.43;;;;;;;;;;5094841;28;20228;-81
2020/12/06 09:51:40;;;;;;;23.67;16.80;;;;;;;;;;5094915;28;20233;-82
2020/12/06 09:54:06;;;;;;;24.40;17.23;;;;;;;;;;5095224;28;20269;-80
2020/12/06 09:56:32;;;;;;;24.23;18.30;;;;;;;;;;5095354;28;20529;-82
2020/12/06 09:58:58;;;;;;;25.63;17.50;;;;;;;;;;5095064;28;20233;-83
2020/12/06 10:01:25;;;;;;;27.20;18.23;;;;;;;;;;5095420;28;20256;-80
2020/12/06 10:03:51;;;;;;;24.53;17.63;;;;;;;;;;5095167;28;20678;-86
2020/12/06 10:06:22;;;;;;;23.80;17.87;;;;;;;;;;5095338;28;20542;-81
2020/12/06 10:08:48;;;;;;;23.40;17.37;;;;;;;;;;5093655;28;20602;-82
2020/12/06 10:11:14;;;;;;;23.47;16.57;;;;;;;;;;5095021;28;20213;-83
2020/12/06 10:13:41;;;;;;;22.23;16.27;;;;;;;;;;5095158;28;20654;-82
2020/12/06 10:16:07;;;;;;;20.10;14.10;;;;;;;;;;5094939;28;20225;-78
2020/12/06 10:18:33;;;;;;;17.53;13.97;;;;;;;;;;5094802;28;20231;-84
2020/12/06 10:20:59;;;;;;;17.73;13.53;;;;;;;;;;5094206;28;20238;-83
2020/12/06 10:23:26;;;;;;;17.30;13.63;;;;;;;;;;5093701;28;20221;-82
2020/12/06 10:25:52;;;;;;;17.80;14.43;;;;;;;;;;5094087;28;20245;-85
2020/12/06 10:28:18;;;;;;;14.83;12.67;;;;;;;;;;5094140;28;20796;-84
2020/12/06 10:30:44;;;;;;;17.30;12.47;;;;;;;;;;5092526;28;20249;-81
2020/12/06 10:33:10;;;;;;;17.33;12.53;;;;;;;;;;5094157;28;20226;-80
2020/12/06 10:35:36;;;;;;;16.27;12.27;;;;;;;;;;5092717;28;20600;-81
2020/12/06 10:38:02;;;;;;;14.00;11.10;;;;;;;;;;5094276;28;20237;-82
2020/12/06 10:40:29;;;;;;;13.63;11.00;;;;;;;;;;5093782;28;20229;-83
2020/12/06 10:42:55;;;;;;;13.57;10.63;;;;;;;;;;5094276;28;20226;-82
2020/12/06 10:45:22;;;;;;;13.10;10.90;;;;;;;;;;5094110;28;20245;-81
2020/12/06 10:47:48;;;;;;;10.03;8.90;;;;;;;;;;5094365;28;20236;-81
2020/12/06 10:50:14;;;;;;;12.30;10.40;;;;;;;;;;5093797;28;20229;-81
2020/12/06 10:52:40;;;;;;;12.43;10.27;;;;;;;;;;5094303;28;20230;-83
2020/12/06 10:55:06;;;;;;;16.73;10.83;;;;;;;;;;5094005;28;20230;-83
2020/12/06 10:57:33;;;;;;;12.70;10.90;;;;;;;;;;5094354;28;20194;-83
2020/12/06 10:59:59;;;;;;;12.33;10.23;;;;;;;;;;5093359;28;20230;-84
2020/12/06 11:02:25;;;;;;;13.73;10.13;;;;;;;;;;5094169;28;20252;-82
2020/12/06 11:04:52;;;;;;;12.13;10.20;;;;;;;;;;5093600;28;20265;-82
2020/12/06 11:07:18;;;;;;;14.27;9.90;;;;;;;;;;5094040;28;20241;-80
2020/12/06 11:09:44;;;;;;;13.20;9.93;;;;;;;;;;5093799;28;20229;-81
2020/12/06 11:12:10;;;;;;;11.00;9.90;;;;;;;;;;5094105;28;20240;-83
2020/12/06 11:14:37;;;;;;;13.47;10.33;;;;;;;;;;5093477;28;20240;-80
2020/12/06 11:17:03;;;;;;;12.80;10.33;;;;;;;;;;5094120;28;20222;-80
2020/12/06 11:19:29;;;;;;;11.93;9.90;;;;;;;;;;5093320;28;20221;-83
2020/12/06 11:21:55;;;;;;;12.30;9.90;;;;;;;;;;5094660;28;20552;-80
2020/12/06 11:24:21;;;;;;;11.83;8.57;;;;;;;;;;5094448;28;20229;-82
2020/12/06 11:26:48;;;;;;;10.13;8.73;;;;;;;;;;5094580;28;20238;-82
2020/12/06 11:29:14;;;;;;;11.80;9.20;;;;;;;;;;5096814;28;20510;-82
2020/12/06 11:31:41;;;;;;;9.50;8.23;;;;;;;;;;5097859;28;20253;-83
2020/12/06 11:34:07;;;;;;;8.27;7.47;;;;;;;;;;5097880;28;20233;-83
2020/12/06 11:36:33;;;;;;;8.97;7.33;;;;;;;;;;5098245;28;20221;-84
2020/12/06 11:38:59;;;;;;;9.53;7.90;;;;;;;;;;5097617;28;20226;-83
2020/12/06 11:41:26;;;;;;;8.70;7.80;;;;;;;;;;5098098;28;20240;-83
2020/12/06 11:43:52;;;;;;;8.40;7.17;;;;;;;;;;5097442;28;20229;-83
2020/12/06 11:46:18;;;;;;;9.27;7.60;;;;;;;;;;5098008;28;20253;-83
2020/12/06 11:48:45;;;;;;;8.97;7.20;;;;;;;;;;5096834;28;20225;-82
2020/12/06 11:51:11;;;;;;;7.90;7.03;;;;;;;;;;5097907;28;20661;-82
2020/12/06 11:53:37;;;;;;;7.83;6.63;;;;;;;;;;5097658;28;20230;-82
2020/12/06 11:56:04;;;;;;;7.80;6.50;;;;;;;;;;5097853;28;20280;-84
2020/12/06 11:58:30;;;;;;;7.80;6.43;;;;;;;;;;5097774;28;20610;-83
2020/12/06 12:00:56;;;;;;;6.13;5.53;;;;;;;;;;5097443;28;20233;-84
2020/12/06 12:03:22;;;;;;;6.10;5.50;;;;;;;;;;5097274;28;20263;-83
2020/12/06 12:05:49;;;;;;;7.97;6.13;;;;;;;;;;5097560;28;20660;-83
2020/12/06 12:08:15;;;;;;;6.40;5.80;;;;;;;;;;5097813;28;20672;-84
2020/12/06 12:10:41;;;;;;;6.03;5.43;;;;;;;;;;5097468;28;20225;-82
2020/12/06 12:13:07;;;;;;;5.80;5.30;;;;;;;;;;5096892;28;20229;-83
2020/12/06 12:15:33;;;;;;;5.37;4.97;;;;;;;;;;5094016;28;20327;-85
2020/12/06 12:17:59;;;;;;;5.73;5.20;;;;;;;;;;5096739;28;20557;-84
2020/12/06 12:20:28;;;;;;;5.80;5.30;;;;;;;;;;5097071;28;20221;-82
2020/12/06 12:22:55;;;;;;;5.30;4.80;;;;;;;;;;5093915;28;20626;-82
2020/12/06 12:25:21;;;;;;;5.73;5.23;;;;;;;;;;5096986;28;20225;-82
2020/12/06 12:27:47;;;;;;;6.13;5.53;;;;;;;;;;5096214;28;20222;-82
2020/12/06 12:30:13;;;;;;;5.70;5.20;;;;;;;;;;5096235;28;20546;-82
2020/12/06 12:32:39;;;;;;;7.13;5.37;;;;;;;;;;5096755;28;20221;-83
2020/12/06 12:35:05;;;;;;;6.87;5.93;;;;;;;;;;5096650;28;20232;-83
2020/12/06 12:37:31;;;;;;;5.73;5.23;;;;;;;;;;5096518;28;20225;-85
2020/12/06 12:39:58;;;;;;;7.07;5.83;;;;;;;;;;5096271;28;20221;-83
2020/12/06 12:42:27;;;;;;;6.63;5.80;;;;;;;;;;5096433;28;20679;-84
2020/12/06 12:44:53;;;;;;;7.20;6.30;;;;;;;;;;5096520;28;20236;-84
2020/12/06 12:47:19;;;;;;;6.73;6.00;;;;;;;;;;5096756;28;20245;-84
2020/12/06 12:49:45;;;;;;;6.37;5.70;;;;;;;;;;5096629;28;20233;-83
2020/12/06 12:52:12;;;;;;;7.85;7.05;;;;;;;;;;5096203;28;20791;-87
2020/12/06 12:54:38;;;;;;;5.97;5.37;;;;;;;;;;5096552;28;20229;-87
2020/12/06 12:57:05;;;;;;;6.63;5.87;;;;;;;;;;5096894;28;20221;-86
2020/12/06 12:59:31;;;;;;;6.23;5.63;;;;;;;;;;5096182;28;20202;-84
2020/12/06 13:01:57;;;;;;;6.87;6.17;;;;;;;;;;5095526;28;20275;-83
2020/12/06 13:04:23;;;;;;;5.80;5.30;;;;;;;;;;5095528;28;20237;-83
2020/12/06 13:06:49;;;;;;;6.90;5.73;;;;;;;;;;5095862;28;20256;-83
2020/12/06 13:09:15;;;;;;;6.90;6.20;;;;;;;;;;5096044;28;20237;-83
2020/12/06 13:11:42;;;;;;;8.53;5.97;;;;;;;;;;5095758;28;20225;-82
2020/12/06 13:14:08;;;;;;;6.97;6.27;;;;;;;;;;5095752;28;20226;-82
2020/12/06 13:16:35;;;;;;;6.47;5.87;;;;;;;;;;5095571;28;20202;-82
2020/12/06 13:19:01;;;;;;;5.90;5.40;;;;;;;;;;5095092;28;20225;-84
2020/12/06 13:21:27;;;;;;;8.37;6.03;;;;;;;;;;5095423;28;20233;-83
2020/12/06 13:23:53;;;;;;;6.37;5.77;;;;;;;;;;5095053;28;20233;-84
2020/12/06 13:26:20;;;;;;;6.47;5.43;;;;;;;;;;5095402;28;20245;-82
2020/12/06 13:28:46;;;;;;;6.23;5.63;;;;;;;;;;5095537;28;20610;-82
2020/12/06 13:31:17;;;;;;;6.20;5.67;;;;;;;;;;5094845;28;20259;-83
2020/12/06 13:33:43;;;;;;;6.80;6.10;;;;;;;;;;5095365;28;20229;-82
2020/12/06 13:36:09;;;;;;;6.47;5.90;;;;;;;;;;5095361;28;20221;-82
2020/12/06 13:38:36;;;;;;;6.70;6.00;;;;;;;;;;5095003;28;20204;-83
2020/12/06 13:41:02;;;;;;;6.60;6.00;;;;;;;;;;5094957;28;20206;-82
2020/12/06 13:43:28;;;;;;;6.50;5.73;;;;;;;;;;5093660;28;20247;-82
2020/12/06 13:45:54;;;;;;;7.27;6.13;;;;;;;;;;5094892;28;20252;-81
2020/12/06 13:48:23;;;;;;;7.47;6.53;;;;;;;;;;5094480;28;20232;-81
2020/12/06 13:50:49;;;;;;;14.37;11.73;;;;;;;;;;5094416;28;20229;-81
2020/12/06 13:53:15;;;;;;;12.37;10.17;;;;;;;;;;5095054;28;20619;-82
2020/12/06 13:55:41;;;;;;;9.77;8.50;;;;;;;;;;5094995;28;20226;-81
2020/12/06 13:58:07;;;;;;;7.00;6.40;;;;;;;;;;5094976;28;20253;-82
2020/12/06 14:00:33;;;;;;;6.60;6.00;;;;;;;;;;5094999;28;20685;-81
2020/12/06 14:02:59;;;;;;;6.50;5.90;;;;;;;;;;5094476;28;20241;-82
2020/12/06 14:05:26;;;;;;;6.43;5.80;;;;;;;;;;5094864;28;20229;-82
2020/12/06 14:07:52;;;;;;;7.50;6.70;;;;;;;;;;5094467;28;20245;-80
2020/12/06 14:10:18;;;;;;;7.33;6.27;;;;;;;;;;5094533;28;20236;-82
2020/12/06 14:12:44;;;;;;;6.70;6.10;;;;;;;;;;5094704;28;20549;-81
2020/12/06 14:15:10;;;;;;;7.10;6.47;;;;;;;;;;5094435;28;20229;-82
2020/12/06 14:17:36;;;;;;;8.20;7.40;;;;;;;;;;5094238;28;20225;-81